GTU weather

Georgetown Municipal Airport
Georgetown, Texas, United States

Public forecast

Using degrees Fahrenheit for public forecast. Weather courtesy of forecast.io.

Current aviation weather report (METAR) for Georgetown Municipal Airport

Retrieved 2019/12/09 03:56 UTC (49 minutes ago):

KGTU 090356Z 17005KT 10SM CLR 18/13 A2989 RMK AO2 SLP119 T01780133

Closest aviation forecast (TAF) to Georgetown Municipal Airport

Closest forecast is Robert Gray Army Air Field Airport, 24.6 nm (45.5 km) NNW. Retrieved 2019-12-09 00:12 UTC (5 hours ago):

TAF TAF KGRK 090000Z 0900/1006 18012KT 9999 SCT250 QNH2980INS BECMG 0908/0909 20006KT 4800 BR SCT250 QNH2980INS BECMG 0916/0917 23009KT 9999 NSW SCT100 QNH2976INS BECMG 1005/1006 01015G20KT 8000 -SHRA BKN030 QNH2993INS TX24/0921Z TN15/0912Z